sensor_id;sensor_type;location;lat;lon;timestamp;P1;durP1;ratioP1;P2;durP2;ratioP2
23658;SDS011;12006;42.666;23.326;2022-12-24T00:00:23;47.33;;;33.90;;
23658;SDS011;12006;42.666;23.326;2022-12-24T00:02:49;51.63;;;33.87;;
23658;SDS011;12006;42.666;23.326;2022-12-24T00:05:14;53.03;;;34.30;;
23658;SDS011;12006;42.666;23.326;2022-12-24T00:07:39;52.90;;;33.10;;
23658;SDS011;12006;42.666;23.326;2022-12-24T00:10:04;49.47;;;34.83;;
23658;SDS011;12006;42.666;23.326;2022-12-24T00:12:30;46.83;;;32.07;;
23658;SDS011;12006;42.666;23.326;2022-12-24T00:14:56;46.23;;;31.40;;
23658;SDS011;12006;42.666;23.326;2022-12-24T00:17:21;48.97;;;32.10;;
23658;SDS011;12006;42.666;23.326;2022-12-24T00:19:46;48.87;;;32.13;;
23658;SDS011;12006;42.666;23.326;2022-12-24T00:22:11;48.37;;;33.23;;
23658;SDS011;12006;42.666;23.326;2022-12-24T00:24:37;49.13;;;33.57;;
23658;SDS011;12006;42.666;23.326;2022-12-24T00:27:02;47.73;;;32.57;;
23658;SDS011;12006;42.666;23.326;2022-12-24T00:29:29;43.17;;;31.87;;
23658;SDS011;12006;42.666;23.326;2022-12-24T00:31:54;47.77;;;31.83;;
23658;SDS011;12006;42.666;23.326;2022-12-24T00:34:21;44.80;;;30.60;;
23658;SDS011;12006;42.666;23.326;2022-12-24T00:36:47;48.23;;;31.30;;
23658;SDS011;12006;42.666;23.326;2022-12-24T00:39:12;43.77;;;29.60;;
23658;SDS011;12006;42.666;23.326;2022-12-24T00:41:37;44.60;;;30.67;;
23658;SDS011;12006;42.666;23.326;2022-12-24T00:44:03;47.80;;;32.73;;
23658;SDS011;12006;42.666;23.326;2022-12-24T00:46:36;43.57;;;31.33;;
23658;SDS011;12006;42.666;23.326;2022-12-24T00:49:02;43.17;;;29.37;;
23658;SDS011;12006;42.666;23.326;2022-12-24T00:51:28;40.63;;;28.93;;
23658;SDS011;12006;42.666;23.326;2022-12-24T00:53:53;43.00;;;29.70;;
23658;SDS011;12006;42.666;23.326;2022-12-24T00:56:18;45.83;;;30.30;;
23658;SDS011;12006;42.666;23.326;2022-12-24T00:58:44;43.27;;;29.97;;
23658;SDS011;12006;42.666;23.326;2022-12-24T01:01:10;42.60;;;29.00;;
23658;SDS011;12006;42.666;23.326;2022-12-24T01:03:35;37.37;;;27.57;;
23658;SDS011;12006;42.666;23.326;2022-12-24T01:06:04;38.47;;;27.30;;
23658;SDS011;12006;42.666;23.326;2022-12-24T01:08:30;40.60;;;26.47;;
23658;SDS011;12006;42.666;23.326;2022-12-24T01:10:55;37.27;;;25.80;;
23658;SDS011;12006;42.666;23.326;2022-12-24T01:13:21;34.60;;;25.97;;
23658;SDS011;12006;42.666;23.326;2022-12-24T01:15:46;37.03;;;26.23;;
23658;SDS011;12006;42.666;23.326;2022-12-24T01:18:11;36.57;;;25.53;;
23658;SDS011;12006;42.666;23.326;2022-12-24T01:20:37;38.83;;;27.27;;
23658;SDS011;12006;42.666;23.326;2022-12-24T01:23:02;36.73;;;25.43;;
23658;SDS011;12006;42.666;23.326;2022-12-24T01:25:27;33.93;;;24.63;;
23658;SDS011;12006;42.666;23.326;2022-12-24T01:27:52;35.13;;;26.40;;
23658;SDS011;12006;42.666;23.326;2022-12-24T01:30:18;39.70;;;27.57;;
23658;SDS011;12006;42.666;23.326;2022-12-24T01:32:43;34.63;;;25.60;;
23658;SDS011;12006;42.666;23.326;2022-12-24T01:35:08;41.20;;;26.13;;
23658;SDS011;12006;42.666;23.326;2022-12-24T01:37:34;33.90;;;26.20;;
23658;SDS011;12006;42.666;23.326;2022-12-24T01:39:59;38.53;;;26.97;;
23658;SDS011;12006;42.666;23.326;2022-12-24T01:42:44;37.13;;;27.30;;
23658;SDS011;12006;42.666;23.326;2022-12-24T01:48:00;39.00;;;27.73;;
23658;SDS011;12006;42.666;23.326;2022-12-24T01:50:26;35.67;;;26.70;;
23658;SDS011;12006;42.666;23.326;2022-12-24T01:52:51;35.77;;;26.73;;
23658;SDS011;12006;42.666;23.326;2022-12-24T01:55:17;35.67;;;26.27;;
23658;SDS011;12006;42.666;23.326;2022-12-24T01:57:50;36.33;;;26.77;;
23658;SDS011;12006;42.666;23.326;2022-12-24T02:00:17;35.93;;;27.07;;
23658;SDS011;12006;42.666;23.326;2022-12-24T02:02:43;34.53;;;24.57;;
23658;SDS011;12006;42.666;23.326;2022-12-24T02:05:17;38.00;;;26.30;;
23658;SDS011;12006;42.666;23.326;2022-12-24T02:07:43;37.20;;;26.70;;
23658;SDS011;12006;42.666;23.326;2022-12-24T02:10:09;40.93;;;27.73;;
23658;SDS011;12006;42.666;23.326;2022-12-24T02:12:35;38.83;;;27.10;;
23658;SDS011;12006;42.666;23.326;2022-12-24T02:15:01;38.87;;;24.80;;
23658;SDS011;12006;42.666;23.326;2022-12-24T02:17:31;36.50;;;24.93;;
23658;SDS011;12006;42.666;23.326;2022-12-24T02:20:16;34.47;;;23.20;;
23658;SDS011;12006;42.666;23.326;2022-12-24T02:25:34;39.07;;;25.10;;
23658;SDS011;12006;42.666;23.326;2022-12-24T02:30:57;39.43;;;24.80;;
23658;SDS011;12006;42.666;23.326;2022-12-24T02:35:51;34.83;;;24.93;;
23658;SDS011;12006;42.666;23.326;2022-12-24T02:40:49;30.87;;;24.33;;
23658;SDS011;12006;42.666;23.326;2022-12-24T02:43:18;31.87;;;24.03;;
23658;SDS011;12006;42.666;23.326;2022-12-24T02:45:45;37.83;;;24.63;;
23658;SDS011;12006;42.666;23.326;2022-12-24T02:48:11;31.17;;;23.97;;
23658;SDS011;12006;42.666;23.326;2022-12-24T02:50:38;30.87;;;22.40;;
23658;SDS011;12006;42.666;23.326;2022-12-24T02:53:04;31.03;;;22.53;;
23658;SDS011;12006;42.666;23.326;2022-12-24T02:56:33;35.77;;;24.90;;
23658;SDS011;12006;42.666;23.326;2022-12-24T02:58:29;31.50;;;23.23;;
23658;SDS011;12006;42.666;23.326;2022-12-24T03:03:27;33.97;;;25.03;;
23658;SDS011;12006;42.666;23.326;2022-12-24T03:06:00;32.67;;;23.00;;
23658;SDS011;12006;42.666;23.326;2022-12-24T03:08:29;36.80;;;24.90;;
23658;SDS011;12006;42.666;23.326;2022-12-24T03:11:01;34.17;;;23.43;;
23658;SDS011;12006;42.666;23.326;2022-12-24T03:13:27;30.43;;;22.13;;
23658;SDS011;12006;42.666;23.326;2022-12-24T03:15:53;31.10;;;22.90;;
23658;SDS011;12006;42.666;23.326;2022-12-24T03:18:22;35.87;;;25.30;;
23658;SDS011;12006;42.666;23.326;2022-12-24T03:21:01;36.87;;;26.27;;
23658;SDS011;12006;42.666;23.326;2022-12-24T03:23:29;32.50;;;24.17;;
23658;SDS011;12006;42.666;23.326;2022-12-24T03:25:54;38.13;;;25.27;;
23658;SDS011;12006;42.666;23.326;2022-12-24T03:28:23;35.37;;;24.77;;
23658;SDS011;12006;42.666;23.326;2022-12-24T03:30:50;34.30;;;24.87;;
23658;SDS011;12006;42.666;23.326;2022-12-24T03:33:15;38.63;;;25.03;;
23658;SDS011;12006;42.666;23.326;2022-12-24T03:35:40;33.20;;;24.47;;
23658;SDS011;12006;42.666;23.326;2022-12-24T03:38:05;33.73;;;25.30;;
23658;SDS011;12006;42.666;23.326;2022-12-24T03:40:31;30.80;;;23.63;;
23658;SDS011;12006;42.666;23.326;2022-12-24T03:42:56;32.43;;;23.83;;
23658;SDS011;12006;42.666;23.326;2022-12-24T03:45:21;29.73;;;21.93;;
23658;SDS011;12006;42.666;23.326;2022-12-24T03:47:47;32.00;;;22.00;;
23658;SDS011;12006;42.666;23.326;2022-12-24T03:50:12;31.23;;;23.87;;
23658;SDS011;12006;42.666;23.326;2022-12-24T03:52:37;33.37;;;23.20;;
23658;SDS011;12006;42.666;23.326;2022-12-24T03:55:02;35.30;;;24.33;;
23658;SDS011;12006;42.666;23.326;2022-12-24T03:57:28;32.80;;;23.17;;
23658;SDS011;12006;42.666;23.326;2022-12-24T03:59:53;30.63;;;22.67;;
23658;SDS011;12006;42.666;23.326;2022-12-24T04:02:18;34.73;;;22.97;;
23658;SDS011;12006;42.666;23.326;2022-12-24T04:04:43;34.87;;;25.07;;
23658;SDS011;12006;42.666;23.326;2022-12-24T04:07:09;34.40;;;24.30;;
23658;SDS011;12006;42.666;23.326;2022-12-24T04:09:34;33.83;;;23.13;;
23658;SDS011;12006;42.666;23.326;2022-12-24T04:11:59;35.13;;;23.10;;
23658;SDS011;12006;42.666;23.326;2022-12-24T04:14:25;30.87;;;22.77;;
23658;SDS011;12006;42.666;23.326;2022-12-24T04:16:50;31.93;;;23.17;;
23658;SDS011;12006;42.666;23.326;2022-12-24T04:19:15;30.40;;;22.37;;
23658;SDS011;12006;42.666;23.326;2022-12-24T04:21:40;30.87;;;21.40;;
23658;SDS011;12006;42.666;23.326;2022-12-24T04:24:06;28.63;;;21.60;;
23658;SDS011;12006;42.666;23.326;2022-12-24T04:26:31;32.00;;;22.73;;
23658;SDS011;12006;42.666;23.326;2022-12-24T04:28:56;30.37;;;23.00;;
23658;SDS011;12006;42.666;23.326;2022-12-24T04:31:21;29.67;;;21.70;;
23658;SDS011;12006;42.666;23.326;2022-12-24T04:33:47;30.43;;;22.50;;
23658;SDS011;12006;42.666;23.326;2022-12-24T04:36:15;31.70;;;22.30;;
23658;SDS011;12006;42.666;23.326;2022-12-24T04:38:44;34.17;;;22.90;;
23658;SDS011;12006;42.666;23.326;2022-12-24T04:41:13;35.40;;;23.10;;
23658;SDS011;12006;42.666;23.326;2022-12-24T04:43:39;29.03;;;21.73;;
23658;SDS011;12006;42.666;23.326;2022-12-24T04:46:08;30.07;;;22.60;;
23658;SDS011;12006;42.666;23.326;2022-12-24T04:48:34;31.70;;;23.27;;
23658;SDS011;12006;42.666;23.326;2022-12-24T04:51:03;31.53;;;22.10;;
23658;SDS011;12006;42.666;23.326;2022-12-24T04:53:29;28.43;;;21.20;;
23658;SDS011;12006;42.666;23.326;2022-12-24T04:55:54;34.53;;;23.20;;
23658;SDS011;12006;42.666;23.326;2022-12-24T04:58:20;27.47;;;21.17;;
23658;SDS011;12006;42.666;23.326;2022-12-24T05:00:45;30.43;;;21.47;;
23658;SDS011;12006;42.666;23.326;2022-12-24T05:03:10;28.80;;;20.30;;
23658;SDS011;12006;42.666;23.326;2022-12-24T05:05:35;28.77;;;21.37;;
23658;SDS011;12006;42.666;23.326;2022-12-24T05:08:01;30.03;;;20.80;;
23658;SDS011;12006;42.666;23.326;2022-12-24T05:10:26;26.83;;;20.00;;
23658;SDS011;12006;42.666;23.326;2022-12-24T05:12:51;26.33;;;20.07;;
23658;SDS011;12006;42.666;23.326;2022-12-24T05:15:16;27.70;;;20.97;;
23658;SDS011;12006;42.666;23.326;2022-12-24T05:17:42;27.50;;;20.90;;
23658;SDS011;12006;42.666;23.326;2022-12-24T05:20:07;28.13;;;20.03;;
23658;SDS011;12006;42.666;23.326;2022-12-24T05:22:32;29.03;;;20.83;;
23658;SDS011;12006;42.666;23.326;2022-12-24T05:25:16;28.40;;;19.90;;
23658;SDS011;12006;42.666;23.326;2022-12-24T05:28:00;30.20;;;21.00;;
23658;SDS011;12006;42.666;23.326;2022-12-24T05:30:25;27.03;;;21.83;;
23658;SDS011;12006;42.666;23.326;2022-12-24T05:32:50;30.67;;;22.63;;
23658;SDS011;12006;42.666;23.326;2022-12-24T05:35:16;35.57;;;22.70;;
23658;SDS011;12006;42.666;23.326;2022-12-24T05:37:41;31.70;;;21.13;;
23658;SDS011;12006;42.666;23.326;2022-12-24T05:40:06;29.77;;;22.30;;
23658;SDS011;12006;42.666;23.326;2022-12-24T05:42:32;29.43;;;20.67;;
23658;SDS011;12006;42.666;23.326;2022-12-24T05:44:57;29.57;;;21.37;;
23658;SDS011;12006;42.666;23.326;2022-12-24T05:47:22;31.20;;;22.37;;
23658;SDS011;12006;42.666;23.326;2022-12-24T05:49:47;29.50;;;20.60;;
23658;SDS011;12006;42.666;23.326;2022-12-24T05:52:12;34.07;;;23.83;;
23658;SDS011;12006;42.666;23.326;2022-12-24T05:54:38;30.90;;;21.30;;
23658;SDS011;12006;42.666;23.326;2022-12-24T05:57:03;27.63;;;20.40;;
23658;SDS011;12006;42.666;23.326;2022-12-24T05:59:28;34.77;;;22.60;;
23658;SDS011;12006;42.666;23.326;2022-12-24T06:01:53;35.57;;;23.83;;
23658;SDS011;12006;42.666;23.326;2022-12-24T06:04:19;35.07;;;23.77;;
23658;SDS011;12006;42.666;23.326;2022-12-24T06:06:44;27.93;;;21.40;;
23658;SDS011;12006;42.666;23.326;2022-12-24T06:09:09;28.87;;;21.23;;
23658;SDS011;12006;42.666;23.326;2022-12-24T06:11:34;30.37;;;20.50;;
23658;SDS011;12006;42.666;23.326;2022-12-24T06:13:59;30.17;;;20.67;;
23658;SDS011;12006;42.666;23.326;2022-12-24T06:16:25;27.73;;;20.50;;
23658;SDS011;12006;42.666;23.326;2022-12-24T06:18:50;25.40;;;18.87;;
23658;SDS011;12006;42.666;23.326;2022-12-24T06:21:16;27.17;;;19.37;;
23658;SDS011;12006;42.666;23.326;2022-12-24T06:23:42;27.37;;;19.73;;
23658;SDS011;12006;42.666;23.326;2022-12-24T06:26:08;29.37;;;20.67;;
23658;SDS011;12006;42.666;23.326;2022-12-24T06:28:35;32.37;;;20.67;;
23658;SDS011;12006;42.666;23.326;2022-12-24T06:31:01;30.00;;;21.50;;
23658;SDS011;12006;42.666;23.326;2022-12-24T06:33:27;26.90;;;19.27;;
23658;SDS011;12006;42.666;23.326;2022-12-24T06:35:52;33.17;;;20.20;;
23658;SDS011;12006;42.666;23.326;2022-12-24T06:38:18;33.73;;;21.07;;
23658;SDS011;12006;42.666;23.326;2022-12-24T06:40:44;31.00;;;19.87;;
23658;SDS011;12006;42.666;23.326;2022-12-24T06:43:09;28.07;;;19.87;;
23658;SDS011;12006;42.666;23.326;2022-12-24T06:45:35;26.67;;;18.83;;
23658;SDS011;12006;42.666;23.326;2022-12-24T06:48:00;30.67;;;20.77;;
23658;SDS011;12006;42.666;23.326;2022-12-24T06:50:25;29.03;;;21.17;;
23658;SDS011;12006;42.666;23.326;2022-12-24T06:52:51;26.13;;;19.87;;
23658;SDS011;12006;42.666;23.326;2022-12-24T06:55:16;24.87;;;19.17;;
23658;SDS011;12006;42.666;23.326;2022-12-24T06:57:42;25.23;;;18.27;;
23658;SDS011;12006;42.666;23.326;2022-12-24T07:00:07;23.93;;;19.20;;
23658;SDS011;12006;42.666;23.326;2022-12-24T07:02:33;26.37;;;17.37;;
23658;SDS011;12006;42.666;23.326;2022-12-24T07:04:58;23.03;;;17.67;;
23658;SDS011;12006;42.666;23.326;2022-12-24T07:07:24;23.90;;;17.97;;
23658;SDS011;12006;42.666;23.326;2022-12-24T07:09:49;21.27;;;17.53;;
23658;SDS011;12006;42.666;23.326;2022-12-24T07:12:14;24.13;;;19.37;;
23658;SDS011;12006;42.666;23.326;2022-12-24T07:14:39;26.70;;;21.03;;
23658;SDS011;12006;42.666;23.326;2022-12-24T07:17:05;25.43;;;20.10;;
23658;SDS011;12006;42.666;23.326;2022-12-24T07:19:30;23.13;;;19.03;;
23658;SDS011;12006;42.666;23.326;2022-12-24T07:21:55;21.93;;;18.63;;
23658;SDS011;12006;42.666;23.326;2022-12-24T07:24:20;27.67;;;20.83;;
23658;SDS011;12006;42.666;23.326;2022-12-24T07:26:46;23.30;;;19.50;;
23658;SDS011;12006;42.666;23.326;2022-12-24T07:29:11;26.30;;;20.20;;
23658;SDS011;12006;42.666;23.326;2022-12-24T07:31:36;24.73;;;20.63;;
23658;SDS011;12006;42.666;23.326;2022-12-24T07:34:01;27.20;;;20.83;;
23658;SDS011;12006;42.666;23.326;2022-12-24T07:36:26;25.03;;;19.80;;
23658;SDS011;12006;42.666;23.326;2022-12-24T07:38:52;24.90;;;20.73;;
23658;SDS011;12006;42.666;23.326;2022-12-24T07:41:18;31.20;;;22.03;;
23658;SDS011;12006;42.666;23.326;2022-12-24T07:43:43;21.37;;;17.03;;
23658;SDS011;12006;42.666;23.326;2022-12-24T07:46:08;24.47;;;19.27;;
23658;SDS011;12006;42.666;23.326;2022-12-24T07:48:33;23.20;;;18.20;;
23658;SDS011;12006;42.666;23.326;2022-12-24T07:50:59;24.60;;;19.63;;
23658;SDS011;12006;42.666;23.326;2022-12-24T07:53:25;21.23;;;17.43;;
23658;SDS011;12006;42.666;23.326;2022-12-24T07:55:50;20.77;;;16.53;;
23658;SDS011;12006;42.666;23.326;2022-12-24T07:58:15;18.90;;;15.93;;
23658;SDS011;12006;42.666;23.326;2022-12-24T08:00:41;19.40;;;15.20;;
23658;SDS011;12006;42.666;23.326;2022-12-24T08:03:06;20.07;;;15.90;;
23658;SDS011;12006;42.666;23.326;2022-12-24T08:05:35;22.63;;;16.93;;
23658;SDS011;12006;42.666;23.326;2022-12-24T08:08:00;22.67;;;17.70;;
23658;SDS011;12006;42.666;23.326;2022-12-24T08:10:26;24.50;;;20.00;;
23658;SDS011;12006;42.666;23.326;2022-12-24T08:12:51;24.00;;;18.13;;
23658;SDS011;12006;42.666;23.326;2022-12-24T08:15:16;21.67;;;17.33;;
23658;SDS011;12006;42.666;23.326;2022-12-24T08:17:41;23.03;;;17.03;;
23658;SDS011;12006;42.666;23.326;2022-12-24T08:20:07;18.53;;;16.10;;
23658;SDS011;12006;42.666;23.326;2022-12-24T08:22:32;18.00;;;15.13;;
23658;SDS011;12006;42.666;23.326;2022-12-24T08:24:57;18.37;;;16.17;;
23658;SDS011;12006;42.666;23.326;2022-12-24T08:27:23;20.67;;;16.90;;
23658;SDS011;12006;42.666;23.326;2022-12-24T08:29:48;21.77;;;17.20;;
23658;SDS011;12006;42.666;23.326;2022-12-24T08:32:14;21.83;;;17.03;;
23658;SDS011;12006;42.666;23.326;2022-12-24T08:34:39;19.63;;;16.53;;
23658;SDS011;12006;42.666;23.326;2022-12-24T08:37:04;20.73;;;16.87;;
23658;SDS011;12006;42.666;23.326;2022-12-24T08:39:29;18.97;;;15.97;;
23658;SDS011;12006;42.666;23.326;2022-12-24T08:41:55;21.47;;;16.10;;
23658;SDS011;12006;42.666;23.326;2022-12-24T08:44:20;18.03;;;15.40;;
23658;SDS011;12006;42.666;23.326;2022-12-24T08:46:45;23.40;;;16.23;;
23658;SDS011;12006;42.666;23.326;2022-12-24T08:49:10;21.70;;;17.10;;
23658;SDS011;12006;42.666;23.326;2022-12-24T08:51:35;22.43;;;17.17;;
23658;SDS011;12006;42.666;23.326;2022-12-24T08:54:01;21.60;;;18.10;;
23658;SDS011;12006;42.666;23.326;2022-12-24T08:56:26;23.70;;;18.33;;
23658;SDS011;12006;42.666;23.326;2022-12-24T08:58:51;24.00;;;19.43;;
23658;SDS011;12006;42.666;23.326;2022-12-24T09:01:17;20.30;;;16.13;;
23658;SDS011;12006;42.666;23.326;2022-12-24T09:03:43;19.57;;;15.87;;
23658;SDS011;12006;42.666;23.326;2022-12-24T09:06:08;16.37;;;14.50;;
23658;SDS011;12006;42.666;23.326;2022-12-24T09:08:33;16.40;;;14.60;;
23658;SDS011;12006;42.666;23.326;2022-12-24T09:11:03;19.13;;;15.00;;
23658;SDS011;12006;42.666;23.326;2022-12-24T09:13:29;19.67;;;14.97;;
23658;SDS011;12006;42.666;23.326;2022-12-24T09:15:54;18.37;;;14.57;;
23658;SDS011;12006;42.666;23.326;2022-12-24T09:18:19;21.23;;;14.03;;
23658;SDS011;12006;42.666;23.326;2022-12-24T09:20:44;15.67;;;13.17;;
23658;SDS011;12006;42.666;23.326;2022-12-24T09:23:09;17.73;;;14.63;;
23658;SDS011;12006;42.666;23.326;2022-12-24T09:25:39;19.50;;;16.03;;
23658;SDS011;12006;42.666;23.326;2022-12-24T09:28:04;18.57;;;14.87;;
23658;SDS011;12006;42.666;23.326;2022-12-24T09:30:29;16.27;;;12.83;;
23658;SDS011;12006;42.666;23.326;2022-12-24T09:32:55;15.70;;;12.70;;
23658;SDS011;12006;42.666;23.326;2022-12-24T09:35:20;18.30;;;13.27;;
23658;SDS011;12006;42.666;23.326;2022-12-24T09:37:45;16.50;;;12.30;;
23658;SDS011;12006;42.666;23.326;2022-12-24T09:40:32;32.37;;;26.67;;
23658;SDS011;12006;42.666;23.326;2022-12-24T09:42:56;39.83;;;29.73;;
23658;SDS011;12006;42.666;23.326;2022-12-24T09:45:23;40.13;;;31.30;;
23658;SDS011;12006;42.666;23.326;2022-12-24T09:47:51;34.77;;;27.97;;
23658;SDS011;12006;42.666;23.326;2022-12-24T09:50:40;35.43;;;28.80;;
23658;SDS011;12006;42.666;23.326;2022-12-24T09:53:05;35.10;;;28.07;;
23658;SDS011;12006;42.666;23.326;2022-12-24T09:55:36;35.37;;;27.77;;
23658;SDS011;12006;42.666;23.326;2022-12-24T09:58:04;36.53;;;29.80;;
23658;SDS011;12006;42.666;23.326;2022-12-24T10:00:32;39.63;;;31.93;;
23658;SDS011;12006;42.666;23.326;2022-12-24T10:02:59;49.87;;;40.37;;
23658;SDS011;12006;42.666;23.326;2022-12-24T10:05:45;65.50;;;52.60;;
23658;SDS011;12006;42.666;23.326;2022-12-24T10:10:47;61.57;;;48.47;;
23658;SDS011;12006;42.666;23.326;2022-12-24T10:20:46;67.77;;;50.40;;
23658;SDS011;12006;42.666;23.326;2022-12-24T10:28:13;55.63;;;44.47;;
23658;SDS011;12006;42.666;23.326;2022-12-24T10:30:39;56.13;;;44.60;;
23658;SDS011;12006;42.666;23.326;2022-12-24T10:33:08;55.77;;;45.67;;
23658;SDS011;12006;42.666;23.326;2022-12-24T10:35:35;58.50;;;43.90;;
23658;SDS011;12006;42.666;23.326;2022-12-24T10:38:04;58.03;;;46.43;;
23658;SDS011;12006;42.666;23.326;2022-12-24T10:40:40;57.23;;;43.77;;
23658;SDS011;12006;42.666;23.326;2022-12-24T10:43:13;57.53;;;44.00;;
23658;SDS011;12006;42.666;23.326;2022-12-24T10:45:40;53.53;;;42.40;;
23658;SDS011;12006;42.666;23.326;2022-12-24T10:48:06;54.60;;;44.00;;
23658;SDS011;12006;42.666;23.326;2022-12-24T10:50:35;54.23;;;43.00;;
23658;SDS011;12006;42.666;23.326;2022-12-24T10:55:50;52.27;;;40.67;;
23658;SDS011;12006;42.666;23.326;2022-12-24T10:58:16;51.43;;;41.20;;
23658;SDS011;12006;42.666;23.326;2022-12-24T11:00:42;52.37;;;41.30;;
23658;SDS011;12006;42.666;23.326;2022-12-24T11:05:41;44.70;;;36.80;;
23658;SDS011;12006;42.666;23.326;2022-12-24T11:08:13;50.20;;;38.80;;
23658;SDS011;12006;42.666;23.326;2022-12-24T11:10:40;47.13;;;38.93;;
23658;SDS011;12006;42.666;23.326;2022-12-24T11:13:17;52.70;;;41.80;;
23658;SDS011;12006;42.666;23.326;2022-12-24T11:15:46;51.43;;;40.83;;
23658;SDS011;12006;42.666;23.326;2022-12-24T11:18:13;54.27;;;40.83;;
23658;SDS011;12006;42.666;23.326;2022-12-24T11:20:39;49.80;;;39.87;;
23658;SDS011;12006;42.666;23.326;2022-12-24T11:23:04;49.17;;;40.43;;
23658;SDS011;12006;42.666;23.326;2022-12-24T11:25:30;51.37;;;41.10;;
23658;SDS011;12006;42.666;23.326;2022-12-24T11:27:57;47.27;;;40.90;;
23658;SDS011;12006;42.666;23.326;2022-12-24T11:30:34;50.90;;;41.17;;
23658;SDS011;12006;42.666;23.326;2022-12-24T11:35:26;52.33;;;41.27;;
23658;SDS011;12006;42.666;23.326;2022-12-24T11:38:16;49.70;;;40.60;;
23658;SDS011;12006;42.666;23.326;2022-12-24T11:40:39;51.80;;;42.00;;
23658;SDS011;12006;42.666;23.326;2022-12-24T11:43:05;53.77;;;43.03;;
23658;SDS011;12006;42.666;23.326;2022-12-24T11:45:31;37.10;;;29.47;;
23658;SDS011;12006;42.666;23.326;2022-12-24T11:47:57;37.70;;;29.50;;
23658;SDS011;12006;42.666;23.326;2022-12-24T11:52:49;38.50;;;30.93;;
23658;SDS011;12006;42.666;23.326;2022-12-24T12:00:51;33.20;;;27.13;;
23658;SDS011;12006;42.666;23.326;2022-12-24T12:05:53;32.37;;;25.73;;
23658;SDS011;12006;42.666;23.326;2022-12-24T12:08:19;32.37;;;24.83;;
23658;SDS011;12006;42.666;23.326;2022-12-24T12:10:45;32.00;;;26.97;;
23658;SDS011;12006;42.666;23.326;2022-12-24T12:13:12;33.53;;;28.33;;
23658;SDS011;12006;42.666;23.326;2022-12-24T12:16:25;34.47;;;27.47;;
23658;SDS011;12006;42.666;23.326;2022-12-24T12:18:25;33.63;;;29.30;;
23658;SDS011;12006;42.666;23.326;2022-12-24T12:20:59;34.33;;;28.63;;
23658;SDS011;12006;42.666;23.326;2022-12-24T12:23:35;34.20;;;29.97;;
23658;SDS011;12006;42.666;23.326;2022-12-24T12:28:38;40.87;;;33.07;;
23658;SDS011;12006;42.666;23.326;2022-12-24T12:33:37;42.13;;;33.50;;
23658;SDS011;12006;42.666;23.326;2022-12-24T12:36:03;44.77;;;35.83;;
23658;SDS011;12006;42.666;23.326;2022-12-24T12:38:29;43.40;;;35.43;;
23658;SDS011;12006;42.666;23.326;2022-12-24T12:43:34;43.03;;;33.30;;
23658;SDS011;12006;42.666;23.326;2022-12-24T12:50:59;40.70;;;33.97;;
23658;SDS011;12006;42.666;23.326;2022-12-24T12:58:37;38.70;;;32.90;;
23658;SDS011;12006;42.666;23.326;2022-12-24T13:01:22;39.60;;;31.03;;
23658;SDS011;12006;42.666;23.326;2022-12-24T13:06:38;36.60;;;31.87;;
23658;SDS011;12006;42.666;23.326;2022-12-24T13:11:52;36.63;;;31.20;;
23658;SDS011;12006;42.666;23.326;2022-12-24T13:14:30;39.00;;;32.50;;
23658;SDS011;12006;42.666;23.326;2022-12-24T13:21:58;47.03;;;35.80;;
23658;SDS011;12006;42.666;23.326;2022-12-24T13:24:24;48.67;;;37.33;;
23658;SDS011;12006;42.666;23.326;2022-12-24T13:29:28;45.77;;;36.90;;
23658;SDS011;12006;42.666;23.326;2022-12-24T13:32:10;50.20;;;41.17;;
23658;SDS011;12006;42.666;23.326;2022-12-24T13:34:40;55.57;;;41.87;;
23658;SDS011;12006;42.666;23.326;2022-12-24T13:37:21;55.83;;;42.27;;
23658;SDS011;12006;42.666;23.326;2022-12-24T13:53:04;58.97;;;43.60;;
23658;SDS011;12006;42.666;23.326;2022-12-24T13:55:30;51.77;;;38.80;;
23658;SDS011;12006;42.666;23.326;2022-12-24T13:57:57;51.13;;;40.70;;
23658;SDS011;12006;42.666;23.326;2022-12-24T14:00:25;58.67;;;40.87;;
23658;SDS011;12006;42.666;23.326;2022-12-24T14:02:55;52.90;;;40.20;;
23658;SDS011;12006;42.666;23.326;2022-12-24T14:05:25;59.77;;;45.37;;
23658;SDS011;12006;42.666;23.326;2022-12-24T14:07:51;51.43;;;40.13;;
23658;SDS011;12006;42.666;23.326;2022-12-24T14:10:19;54.70;;;41.00;;
23658;SDS011;12006;42.666;23.326;2022-12-24T14:12:48;52.90;;;41.63;;
23658;SDS011;12006;42.666;23.326;2022-12-24T14:18:06;61.00;;;41.03;;
23658;SDS011;12006;42.666;23.326;2022-12-24T14:20:31;63.27;;;45.73;;
23658;SDS011;12006;42.666;23.326;2022-12-24T14:22:57;56.90;;;43.30;;
23658;SDS011;12006;42.666;23.326;2022-12-24T14:25:22;60.83;;;44.47;;
23658;SDS011;12006;42.666;23.326;2022-12-24T14:27:57;59.70;;;45.80;;
23658;SDS011;12006;42.666;23.326;2022-12-24T14:30:24;60.07;;;47.77;;
23658;SDS011;12006;42.666;23.326;2022-12-24T14:32:51;63.80;;;50.70;;
23658;SDS011;12006;42.666;23.326;2022-12-24T14:35:23;68.83;;;52.43;;
23658;SDS011;12006;42.666;23.326;2022-12-24T14:40:33;67.87;;;52.17;;
23658;SDS011;12006;42.666;23.326;2022-12-24T14:43:08;65.43;;;50.73;;
23658;SDS011;12006;42.666;23.326;2022-12-24T14:50:56;52.33;;;38.00;;
23658;SDS011;12006;42.666;23.326;2022-12-24T14:55:57;45.20;;;37.03;;
23658;SDS011;12006;42.666;23.326;2022-12-24T14:58:29;42.87;;;32.03;;
23658;SDS011;12006;42.666;23.326;2022-12-24T15:00:56;42.37;;;34.57;;
23658;SDS011;12006;42.666;23.326;2022-12-24T15:03:23;38.63;;;29.90;;
23658;SDS011;12006;42.666;23.326;2022-12-24T15:05:49;33.10;;;26.20;;
23658;SDS011;12006;42.666;23.326;2022-12-24T15:08:16;36.67;;;28.83;;
23658;SDS011;12006;42.666;23.326;2022-12-24T15:10:43;30.47;;;23.57;;
23658;SDS011;12006;42.666;23.326;2022-12-24T15:13:14;31.17;;;22.97;;
23658;SDS011;12006;42.666;23.326;2022-12-24T15:15:45;28.27;;;21.17;;
23658;SDS011;12006;42.666;23.326;2022-12-24T15:18:13;29.50;;;19.60;;
23658;SDS011;12006;42.666;23.326;2022-12-24T15:20:40;24.30;;;19.90;;
23658;SDS011;12006;42.666;23.326;2022-12-24T15:23:15;23.13;;;17.60;;
23658;SDS011;12006;42.666;23.326;2022-12-24T15:25:41;22.03;;;16.67;;
23658;SDS011;12006;42.666;23.326;2022-12-24T15:28:15;22.17;;;17.83;;
23658;SDS011;12006;42.666;23.326;2022-12-24T15:30:41;19.17;;;16.03;;
23658;SDS011;12006;42.666;23.326;2022-12-24T15:33:08;19.47;;;14.57;;
23658;SDS011;12006;42.666;23.326;2022-12-24T15:37:59;13.97;;;12.10;;
23658;SDS011;12006;42.666;23.326;2022-12-24T15:40:24;17.07;;;14.07;;
23658;SDS011;12006;42.666;23.326;2022-12-24T15:42:50;15.97;;;13.10;;
23658;SDS011;12006;42.666;23.326;2022-12-24T15:45:16;15.10;;;10.83;;
23658;SDS011;12006;42.666;23.326;2022-12-24T15:47:45;14.47;;;11.03;;
23658;SDS011;12006;42.666;23.326;2022-12-24T15:50:13;13.80;;;10.87;;
23658;SDS011;12006;42.666;23.326;2022-12-24T15:52:40;14.97;;;12.00;;
23658;SDS011;12006;42.666;23.326;2022-12-24T15:55:22;16.97;;;12.33;;
23658;SDS011;12006;42.666;23.326;2022-12-24T15:57:48;17.00;;;11.97;;